Time;durP1;ratioP1;P1;durP2;ratioP2;P2;SDS_P1;SDS_P2;PMS_P1;PMS_P2;Temp;Humidity;BMP_temperature;BMP_pressure;BME280_temperature;BME280_humidity;BME280_pressure;Samples;Min_cycle;Max_cycle;Signal;HPM_P1;HPM_P2
2022/04/05 00:00:32;;;;;;;8.00;5.17;;;4.90;99.90;;;;;;5071964;28;20234;-71
2022/04/05 00:02:58;;;;;;;5.00;3.97;;;5.00;99.90;;;;;;5066592;28;20188;-71
2022/04/05 00:05:24;;;;;;;5.17;4.60;;;5.00;99.90;;;;;;5050823;28;20179;-71
2022/04/05 00:07:49;;;;;;;2.90;2.70;;;5.00;99.90;;;;;;5051046;28;20246;-71
2022/04/05 00:10:15;;;;;;;3.63;3.33;;;5.00;99.90;;;;;;5051322;28;20176;-71
2022/04/05 00:12:41;;;;;;;4.20;3.90;;;5.00;99.90;;;;;;5050980;28;20200;-71
2022/04/05 00:15:09;;;;;;;5.43;4.93;;;5.10;99.90;;;;;;5070090;28;20549;-71
2022/04/05 00:17:36;;;;;;;4.33;4.03;;;5.00;99.90;;;;;;5054524;28;20214;-71
2022/04/05 00:20:03;;;;;;;4.07;3.73;;;5.00;99.90;;;;;;5054808;28;20180;-71
2022/04/05 00:22:28;;;;;;;5.10;4.60;;;5.10;99.90;;;;;;5054744;28;20175;-71
2022/04/05 00:24:54;;;;;;;2.50;2.40;;;5.10;99.90;;;;;;5054285;28;20582;-71
2022/04/05 00:27:20;;;;;;;3.87;3.47;;;5.20;99.90;;;;;;5054080;28;20200;-71
2022/04/05 00:29:46;;;;;;;5.57;5.17;;;5.20;99.90;;;;;;5073176;28;20183;-71
2022/04/05 00:32:12;;;;;;;9.00;4.87;;;5.10;99.90;;;;;;5082780;28;20205;-71
2022/04/05 00:34:39;;;;;;;5.50;5.00;;;5.10;99.90;;;;;;5071812;28;20242;-71
2022/04/05 00:37:05;;;;;;;4.90;4.23;;;5.10;99.90;;;;;;5056292;28;20257;-71
2022/04/05 00:39:30;;;;;;;6.13;5.50;;;5.20;99.90;;;;;;5084079;28;20179;-71
2022/04/05 00:41:56;;;;;;;5.20;4.77;;;5.20;99.90;;;;;;5093372;28;20175;-71
2022/04/05 00:44:23;;;;;;;5.70;5.20;;;5.20;99.90;;;;;;5093221;28;20633;-71
2022/04/05 00:46:51;;;;;;;4.07;3.77;;;5.20;99.90;;;;;;5067986;28;20231;-71
2022/04/05 00:49:23;;;;;;;5.77;3.77;;;5.30;99.90;;;;;;5054398;28;20179;-73
2022/04/05 00:51:49;;;;;;;4.83;4.43;;;5.30;99.90;;;;;;5072838;28;20738;-73
2022/04/05 00:54:15;;;;;;;5.43;4.93;;;5.30;99.90;;;;;;5071064;28;20192;-71
2022/04/05 00:56:44;;;;;;;5.37;4.87;;;5.20;99.90;;;;;;5053660;28;20650;-71
2022/04/05 00:59:13;;;;;;;5.50;5.00;;;5.20;99.90;;;;;;5054302;28;20164;-70
2022/04/05 01:01:39;;;;;;;5.07;4.67;;;5.20;99.90;;;;;;5053913;28;20207;-70
2022/04/05 01:04:07;;;;;;;4.60;4.23;;;5.30;99.90;;;;;;5053589;28;20538;-71
2022/04/05 01:06:39;;;;;;;3.30;3.10;;;5.30;99.90;;;;;;5053487;28;20226;-71
2022/04/05 01:09:08;;;;;;;4.37;4.07;;;5.30;99.90;;;;;;5062575;28;20542;-71
2022/04/05 01:11:33;;;;;;;3.57;3.27;;;5.30;99.90;;;;;;5059571;28;20701;-71
2022/04/05 01:13:59;;;;;;;6.70;5.00;;;5.30;99.90;;;;;;5056173;28;20175;-71
2022/04/05 01:16:25;;;;;;;5.73;5.07;;;5.20;99.90;;;;;;5073695;28;20206;-71
2022/04/05 01:18:51;;;;;;;5.23;4.80;;;5.20;99.90;;;;;;5066636;28;20545;-71
2022/04/05 01:21:18;;;;;;;6.97;4.30;;;5.20;99.90;;;;;;5053412;28;20179;-73
2022/04/05 01:24:06;;;;;;;5.67;5.10;;;5.30;99.90;;;;;;5053627;28;20168;-74
2022/04/05 01:26:43;;;;;;;5.23;4.73;;;5.20;99.90;;;;;;5053076;28;20261;-72
2022/04/05 01:29:10;;;;;;;5.57;5.00;;;5.20;99.90;;;;;;5054005;28;20599;-71
2022/04/05 01:31:44;;;;;;;5.20;4.80;;;5.20;99.90;;;;;;5053274;28;20200;-71
2022/04/05 01:34:11;;;;;;;5.10;4.70;;;5.30;99.90;;;;;;5053614;28;20180;-71
2022/04/05 01:36:41;;;;;;;4.53;4.13;;;5.20;99.90;;;;;;5053169;28;20199;-70
2022/04/05 01:39:08;;;;;;;4.33;3.93;;;5.20;99.90;;;;;;5068756;28;20172;-70
2022/04/05 01:41:34;;;;;;;8.40;5.00;;;5.20;99.90;;;;;;5053029;28;20665;-70
2022/04/05 01:44:00;;;;;;;6.57;4.83;;;5.20;99.90;;;;;;5052825;28;20172;-70
2022/04/05 01:46:25;;;;;;;4.43;4.13;;;5.20;99.90;;;;;;5052890;28;20253;-71
2022/04/05 01:48:52;;;;;;;5.00;4.50;;;5.20;99.90;;;;;;5053149;28;20551;-71
2022/04/05 01:51:18;;;;;;;5.27;4.80;;;5.20;99.90;;;;;;5053135;28;20188;-71
2022/04/05 01:53:43;;;;;;;4.80;4.30;;;5.10;99.90;;;;;;5052910;28;20180;-71
2022/04/05 01:56:09;;;;;;;5.40;4.87;;;5.10;99.90;;;;;;5052579;28;20234;-71
2022/04/05 01:58:38;;;;;;;4.33;3.93;;;5.00;99.90;;;;;;5052909;28;20225;-70
2022/04/05 02:01:04;;;;;;;5.50;5.00;;;5.10;99.90;;;;;;5052359;28;20591;-70
2022/04/05 02:03:30;;;;;;;6.60;5.87;;;5.10;99.90;;;;;;5052684;28;20234;-70
2022/04/05 02:05:56;;;;;;;4.67;4.27;;;5.00;99.90;;;;;;5052985;28;20568;-70
2022/04/05 02:08:22;;;;;;;4.07;3.77;;;5.10;99.90;;;;;;5077891;28;20191;-72
2022/04/05 02:10:48;;;;;;;5.37;4.97;;;5.20;99.90;;;;;;5076562;28;20184;-71
2022/04/05 02:13:14;;;;;;;6.07;5.47;;;5.30;99.90;;;;;;5084523;28;20177;-72
2022/04/05 02:15:39;;;;;;;5.37;4.87;;;5.30;99.90;;;;;;5092420;28;20576;-73
2022/04/05 02:18:05;;;;;;;4.87;4.47;;;5.30;99.90;;;;;;5092796;28;20205;-73
2022/04/05 02:20:30;;;;;;;5.20;4.73;;;5.20;99.90;;;;;;5066011;28;20651;-71
2022/04/05 02:22:56;;;;;;;5.97;5.30;;;5.30;99.90;;;;;;5052426;28;20175;-71
2022/04/05 02:25:22;;;;;;;5.43;4.90;;;5.20;99.90;;;;;;5067410;28;20194;-71
2022/04/05 02:27:48;;;;;;;7.73;4.97;;;5.20;99.90;;;;;;5083076;28;20684;-72
2022/04/05 02:30:14;;;;;;;3.37;3.17;;;5.20;99.90;;;;;;5074425;28;20176;-70
2022/04/05 02:32:40;;;;;;;5.03;4.50;;;5.20;99.90;;;;;;5064054;28;20219;-70
2022/04/05 02:35:08;;;;;;;4.90;4.33;;;5.20;99.90;;;;;;5071983;28;20220;-70
2022/04/05 02:37:34;;;;;;;5.50;4.90;;;5.20;99.90;;;;;;5071074;28;20570;-70
2022/04/05 02:40:00;;;;;;;5.87;4.30;;;5.20;99.90;;;;;;5052506;28;20172;-70
2022/04/05 02:42:25;;;;;;;6.70;5.37;;;5.20;99.90;;;;;;5052016;28;20541;-70
2022/04/05 02:44:51;;;;;;;4.60;4.20;;;5.20;99.90;;;;;;5052104;28;20657;-70
2022/04/05 02:47:16;;;;;;;4.73;4.17;;;5.20;99.90;;;;;;5050475;28;20261;-70
2022/04/05 02:49:42;;;;;;;5.17;4.17;;;5.20;99.90;;;;;;5052931;28;20172;-70
2022/04/05 02:52:07;;;;;;;4.30;3.90;;;5.40;99.90;;;;;;5071628;28;20203;-71
2022/04/05 02:54:33;;;;;;;6.00;5.50;;;5.30;99.90;;;;;;5069474;28;20665;-70
2022/04/05 02:56:59;;;;;;;5.80;5.23;;;5.20;99.90;;;;;;5051080;28;20199;-70
2022/04/05 02:59:25;;;;;;;3.47;3.27;;;5.30;99.90;;;;;;5069386;28;20535;-70
2022/04/05 03:01:51;;;;;;;5.00;4.60;;;5.20;99.90;;;;;;5075159;28;20470;-70
2022/04/05 03:04:16;;;;;;;5.33;4.93;;;5.20;99.90;;;;;;5068098;28;20594;-70
2022/04/05 03:06:42;;;;;;;4.83;4.40;;;5.10;99.90;;;;;;5082729;28;20280;-70
2022/04/05 03:09:07;;;;;;;4.77;4.40;;;5.00;99.90;;;;;;5078023;28;20585;-69
2022/04/05 03:11:33;;;;;;;3.63;3.37;;;5.00;99.90;;;;;;5069888;28;20199;-70
2022/04/05 03:13:59;;;;;;;5.43;5.03;;;5.00;99.90;;;;;;5073403;28;20175;-69
2022/04/05 03:16:24;;;;;;;4.87;4.47;;;5.00;99.90;;;;;;5074762;28;20717;-69
2022/04/05 03:18:50;;;;;;;4.30;3.90;;;4.90;99.90;;;;;;5065246;28;20581;-69
2022/04/05 03:21:17;;;;;;;5.73;5.23;;;4.80;99.90;;;;;;5063386;28;20266;-71
2022/04/05 03:23:42;;;;;;;5.90;5.43;;;4.80;99.90;;;;;;5071527;28;20195;-70
2022/04/05 03:26:08;;;;;;;7.57;6.87;;;4.60;99.90;;;;;;5071049;28;20724;-70
2022/04/05 03:28:34;;;;;;;5.17;4.67;;;4.50;99.90;;;;;;5053271;28;20215;-69
2022/04/05 03:31:00;;;;;;;5.67;5.17;;;4.60;99.90;;;;;;5059505;28;20199;-69
2022/04/05 03:33:25;;;;;;;5.87;5.37;;;4.50;99.90;;;;;;5076298;28;20722;-69
2022/04/05 03:35:54;;;;;;;5.53;4.67;;;4.40;99.90;;;;;;5068493;28;20581;-69
2022/04/05 03:38:19;;;;;;;6.57;5.97;;;4.40;99.90;;;;;;5071894;28;20209;-70
2022/04/05 03:40:46;;;;;;;6.57;6.03;;;4.30;99.90;;;;;;5071986;28;20175;-70
2022/04/05 03:43:12;;;;;;;5.10;4.70;;;4.30;99.90;;;;;;5068009;28;20246;-70
2022/04/05 03:45:39;;;;;;;5.23;4.63;;;4.30;99.90;;;;;;5068263;28;20340;-69
2022/04/05 03:48:05;;;;;;;6.57;5.97;;;4.20;99.90;;;;;;5072007;28;20226;-69
2022/04/05 03:50:31;;;;;;;5.07;4.63;;;4.20;99.90;;;;;;5072498;28;20212;-68
2022/04/05 03:52:59;;;;;;;6.90;6.30;;;4.20;99.90;;;;;;5074743;28;20202;-69
2022/04/05 03:55:25;;;;;;;6.40;5.80;;;4.20;99.90;;;;;;5074198;28;20171;-69
2022/04/05 03:57:51;;;;;;;5.80;5.30;;;4.20;99.90;;;;;;5071117;28;20180;-70
2022/04/05 04:00:17;;;;;;;5.63;5.10;;;4.20;99.90;;;;;;5071574;28;20172;-70
2022/04/05 04:02:43;;;;;;;4.77;4.37;;;4.20;99.90;;;;;;5078778;28;20541;-69
2022/04/05 04:05:09;;;;;;;5.40;4.63;;;4.20;99.90;;;;;;5074306;28;20179;-70
2022/04/05 04:07:42;;;;;;;6.33;5.63;;;4.30;99.90;;;;;;5071573;28;20711;-69
2022/04/05 04:10:08;;;;;;;7.23;6.53;;;4.10;99.90;;;;;;5073773;28;20171;-69
2022/04/05 04:12:34;;;;;;;5.90;5.37;;;4.10;99.90;;;;;;5074299;28;20563;-69
2022/04/05 04:14:59;;;;;;;9.10;6.30;;;4.10;99.90;;;;;;5071035;28;20547;-69
2022/04/05 04:17:25;;;;;;;6.87;6.27;;;4.00;99.90;;;;;;5071898;28;20230;-70
2022/04/05 04:19:51;;;;;;;4.17;3.87;;;4.00;99.90;;;;;;5070367;28;20601;-70
2022/04/05 04:22:17;;;;;;;7.37;6.60;;;4.00;99.90;;;;;;5074872;28;20221;-70
2022/04/05 04:24:43;;;;;;;8.07;7.27;;;3.90;99.90;;;;;;5071918;28;20606;-70
2022/04/05 04:27:11;;;;;;;7.20;5.90;;;3.80;99.90;;;;;;5073749;28;20211;-70
2022/04/05 04:29:37;;;;;;;8.07;6.30;;;3.80;99.90;;;;;;5069397;28;20183;-69
2022/04/05 04:32:03;;;;;;;5.77;5.27;;;3.80;99.90;;;;;;5074352;28;20195;-69
2022/04/05 04:34:28;;;;;;;7.47;6.67;;;3.90;99.90;;;;;;5069222;28;20647;-69
2022/04/05 04:36:54;;;;;;;7.43;6.67;;;3.90;99.90;;;;;;5069052;28;20195;-69
2022/04/05 04:39:20;;;;;;;6.57;5.97;;;3.80;99.90;;;;;;5069992;28;20182;-68
2022/04/05 04:41:46;;;;;;;11.37;7.53;;;3.80;99.90;;;;;;5066110;28;20559;-68
2022/04/05 04:44:11;;;;;;;9.07;8.23;;;3.80;99.90;;;;;;5068784;28;20214;-71
2022/04/05 04:46:37;;;;;;;9.00;8.20;;;3.80;99.90;;;;;;5068232;28;20195;-72
2022/04/05 04:49:03;;;;;;;9.80;8.87;;;3.80;99.90;;;;;;5079804;28;20652;-72
2022/04/05 04:51:28;;;;;;;10.07;9.10;;;3.80;99.90;;;;;;5067517;28;20220;-72
2022/04/05 04:53:54;;;;;;;9.53;8.53;;;3.70;99.90;;;;;;5068904;28;20557;-71
2022/04/05 04:56:20;;;;;;;9.80;8.80;;;3.70;99.90;;;;;;5071147;28;20222;-72
2022/04/05 04:58:45;;;;;;;9.20;8.03;;;3.70;99.90;;;;;;5080529;28;20513;-71
2022/04/05 05:01:11;;;;;;;9.70;8.57;;;3.70;99.90;;;;;;5075095;28;20221;-72
2022/04/05 05:03:37;;;;;;;10.27;9.27;;;3.70;99.90;;;;;;5071543;28;20172;-70
2022/04/05 05:06:04;;;;;;;9.87;8.97;;;3.70;99.90;;;;;;5083791;28;20195;-71
2022/04/05 05:08:30;;;;;;;9.57;8.57;;;3.60;99.90;;;;;;5062008;28;20269;-72
2022/04/05 05:10:56;;;;;;;10.77;8.97;;;3.60;99.90;;;;;;5068545;28;20190;-72
2022/04/05 05:13:22;;;;;;;10.37;9.27;;;3.60;99.90;;;;;;5081993;28;20174;-73
2022/04/05 05:15:47;;;;;;;9.23;8.33;;;3.50;99.90;;;;;;5072230;28;20301;-74
2022/04/05 05:18:16;;;;;;;9.57;8.47;;;3.60;99.90;;;;;;5053776;28;20196;-72
2022/04/05 05:20:41;;;;;;;9.43;7.73;;;3.70;99.90;;;;;;5067145;28;20186;-72
2022/04/05 05:23:07;;;;;;;6.03;5.43;;;3.70;99.90;;;;;;5069578;28;20250;-74
2022/04/05 05:25:33;;;;;;;11.20;9.17;;;3.60;99.90;;;;;;5055416;28;20200;-74
2022/04/05 05:27:58;;;;;;;12.00;10.30;;;3.60;99.90;;;;;;5069178;28;20225;-73
2022/04/05 05:30:24;;;;;;;10.77;8.80;;;3.60;99.90;;;;;;5053584;28;20168;-73
2022/04/05 05:32:50;;;;;;;8.17;6.77;;;3.60;99.90;;;;;;5053411;28;20203;-74
2022/04/05 05:35:17;;;;;;;13.00;10.13;;;3.60;99.90;;;;;;5053405;28;20176;-73
2022/04/05 05:37:44;;;;;;;12.57;11.27;;;3.60;99.90;;;;;;5055745;28;20266;-74
2022/04/05 05:40:11;;;;;;;7.53;6.47;;;3.60;99.90;;;;;;5068581;28;20182;-74
2022/04/05 05:43:06;;;;;;;12.47;11.43;;;3.60;99.90;;;;;;5080128;28;20734;-69
2022/04/05 05:45:34;;;;;;;13.10;11.50;;;3.60;99.90;;;;;;5059704;28;20628;-74
2022/04/05 05:48:00;;;;;;;13.00;10.73;;;3.70;99.90;;;;;;5057948;28;20191;-71
2022/04/05 05:50:26;;;;;;;11.93;9.90;;;3.70;99.90;;;;;;5073070;28;20186;-71
2022/04/05 05:52:52;;;;;;;15.13;10.57;;;3.70;99.90;;;;;;5072970;28;20202;-71
2022/04/05 05:55:20;;;;;;;11.50;10.40;;;3.80;99.90;;;;;;5072686;28;20167;-70
2022/04/05 05:57:46;;;;;;;11.67;10.00;;;3.90;99.90;;;;;;5069695;28;20181;-70
2022/04/05 06:00:21;;;;;;;10.60;9.50;;;3.90;99.90;;;;;;5069328;28;20180;-70
2022/04/05 06:02:48;;;;;;;10.37;9.33;;;3.90;99.90;;;;;;5070923;28;20165;-68
2022/04/05 06:05:14;;;;;;;9.90;8.90;;;3.90;99.90;;;;;;5071623;28;20199;-67
2022/04/05 06:07:41;;;;;;;10.17;8.73;;;3.90;99.90;;;;;;5072696;28;20252;-72
2022/04/05 06:10:08;;;;;;;11.83;10.53;;;3.90;99.90;;;;;;5072549;28;20163;-71
2022/04/05 06:12:41;;;;;;;11.23;9.73;;;3.90;99.90;;;;;;5058897;28;20207;-71
2022/04/05 06:15:09;;;;;;;9.77;8.37;;;4.00;99.90;;;;;;5058943;28;20167;-71
2022/04/05 06:17:39;;;;;;;12.63;11.33;;;3.90;99.90;;;;;;5052166;28;20785;-72
2022/04/05 06:20:06;;;;;;;10.33;8.77;;;3.90;99.90;;;;;;5052762;28;20168;-71
2022/04/05 06:22:42;;;;;;;12.33;9.27;;;3.90;99.90;;;;;;5061151;28;20661;-71
2022/04/05 06:25:09;;;;;;;10.60;9.50;;;4.00;99.90;;;;;;5066587;28;20175;-70
2022/04/05 06:27:37;;;;;;;12.57;11.37;;;4.00;99.90;;;;;;5081132;28;20741;-70
2022/04/05 06:30:04;;;;;;;12.27;10.37;;;4.00;99.90;;;;;;5077344;28;20194;-68
2022/04/05 06:32:29;;;;;;;10.43;9.33;;;4.00;99.90;;;;;;5071559;28;20226;-68
2022/04/05 06:34:55;;;;;;;9.00;8.20;;;4.10;99.90;;;;;;5073212;28;20211;-70
2022/04/05 06:37:21;;;;;;;10.20;8.80;;;4.20;99.90;;;;;;5067947;28;20283;-67
2022/04/05 06:39:48;;;;;;;9.63;8.63;;;4.20;99.90;;;;;;5072192;28;20175;-68
2022/04/05 06:42:13;;;;;;;11.10;9.90;;;4.20;99.90;;;;;;5068029;28;20207;-69
2022/04/05 06:44:39;;;;;;;12.67;10.73;;;4.20;99.90;;;;;;5065289;28;20548;-68
2022/04/05 06:47:06;;;;;;;10.43;9.40;;;4.30;99.90;;;;;;5074846;28;20233;-68
2022/04/05 06:49:32;;;;;;;10.37;9.37;;;4.30;99.90;;;;;;5069518;28;20182;-68
2022/04/05 06:51:58;;;;;;;8.33;7.20;;;4.30;99.90;;;;;;5070187;28;20199;-68
2022/04/05 06:54:24;;;;;;;12.23;11.03;;;4.40;99.90;;;;;;5071860;28;20173;-68
2022/04/05 06:56:50;;;;;;;7.50;6.77;;;4.40;99.90;;;;;;5059262;28;20632;-68
2022/04/05 06:59:15;;;;;;;10.53;9.40;;;4.40;99.90;;;;;;5051937;28;20182;-68
2022/04/05 07:01:41;;;;;;;11.07;9.97;;;4.40;99.90;;;;;;5052373;28;20234;-68
2022/04/05 07:04:06;;;;;;;10.80;9.80;;;4.50;99.90;;;;;;5051736;28;20182;-68
2022/04/05 07:06:32;;;;;;;10.53;9.43;;;4.50;99.90;;;;;;5051297;28;20299;-69
2022/04/05 07:08:58;;;;;;;10.67;7.83;;;4.60;99.90;;;;;;5051403;28;20222;-68
2022/04/05 07:11:24;;;;;;;11.57;8.30;;;4.60;99.90;;;;;;5051709;28;20215;-68
2022/04/05 07:13:51;;;;;;;8.80;7.57;;;4.60;99.90;;;;;;5051574;28;20180;-68
2022/04/05 07:16:18;;;;;;;10.17;8.70;;;4.70;99.90;;;;;;5051262;28;20180;-67
2022/04/05 07:18:43;;;;;;;10.80;9.67;;;4.70;99.90;;;;;;5051657;28;20674;-68
2022/04/05 07:21:09;;;;;;;13.00;11.77;;;4.70;99.90;;;;;;5057656;28;20184;-71
2022/04/05 07:23:36;;;;;;;10.50;9.20;;;4.80;99.90;;;;;;5052601;28;20647;-69
2022/04/05 07:26:02;;;;;;;6.90;6.23;;;4.80;99.90;;;;;;5071374;28;20218;-70
2022/04/05 07:28:28;;;;;;;9.13;8.30;;;4.90;99.90;;;;;;5071380;28;20200;-67
2022/04/05 07:30:53;;;;;;;10.40;9.40;;;4.90;99.90;;;;;;5062947;28;20179;-71
2022/04/05 07:33:19;;;;;;;12.30;10.03;;;5.00;99.90;;;;;;5071098;28;20269;-68
2022/04/05 07:35:45;;;;;;;11.40;10.20;;;5.10;99.90;;;;;;5074912;28;20197;-66
2022/04/05 07:38:12;;;;;;;9.83;8.10;;;5.30;99.90;;;;;;5066790;28;20676;-77
2022/04/05 07:40:52;;;;;;;7.40;6.80;;;5.30;99.90;;;;;;5063928;28;20245;-74
2022/04/05 07:43:23;;;;;;;11.07;9.00;;;5.40;99.90;;;;;;5064171;28;20171;-72
2022/04/05 07:45:50;;;;;;;9.20;8.17;;;5.50;99.90;;;;;;5067092;28;20250;-75
2022/04/05 07:48:26;;;;;;;9.50;8.50;;;5.60;99.90;;;;;;5065942;28;20175;-73
2022/04/05 07:50:51;;;;;;;10.07;8.33;;;5.60;99.90;;;;;;5073852;28;20237;-73
2022/04/05 07:53:17;;;;;;;10.13;9.03;;;5.60;99.90;;;;;;5065203;28;20302;-72
2022/04/05 07:55:43;;;;;;;6.87;6.23;;;5.70;99.90;;;;;;5068614;28;20205;-70
2022/04/05 07:58:09;;;;;;;8.80;7.97;;;5.60;99.90;;;;;;5058691;28;20183;-71
2022/04/05 08:00:36;;;;;;;9.80;8.83;;;5.70;99.90;;;;;;5062566;28;20180;-71
2022/04/05 08:03:01;;;;;;;9.00;8.17;;;5.70;99.90;;;;;;5073706;28;20536;-74
2022/04/05 08:05:27;;;;;;;9.23;8.10;;;5.80;99.90;;;;;;5072891;28;20182;-72
2022/04/05 08:07:54;;;;;;;7.63;6.80;;;5.80;99.90;;;;;;5059223;28;20190;-73
2022/04/05 08:10:20;;;;;;;8.27;6.97;;;5.90;99.90;;;;;;5069098;28;20268;-72
2022/04/05 08:12:48;;;;;;;8.87;8.07;;;6.00;99.90;;;;;;5078718;28;20282;-73
2022/04/05 08:15:16;;;;;;;9.47;8.57;;;5.90;99.90;;;;;;5064857;28;20258;-72
2022/04/05 08:17:41;;;;;;;10.17;9.17;;;6.10;99.90;;;;;;5065687;28;20308;-71
2022/04/05 08:20:08;;;;;;;8.90;8.10;;;6.20;99.90;;;;;;5077338;28;20693;-72
2022/04/05 08:22:34;;;;;;;7.97;7.17;;;6.30;99.90;;;;;;5059137;28;20522;-72
2022/04/05 08:24:59;;;;;;;9.30;8.50;;;6.30;99.90;;;;;;5058828;28;20183;-71
2022/04/05 08:27:25;;;;;;;8.20;7.40;;;6.30;99.90;;;;;;5061322;28;20230;-68
2022/04/05 08:29:51;;;;;;;8.63;7.93;;;6.30;99.90;;;;;;5058926;28;20180;-70
2022/04/05 08:32:16;;;;;;;7.67;5.57;;;6.30;99.90;;;;;;5063085;28;20245;-73
2022/04/05 08:34:45;;;;;;;9.10;8.37;;;6.20;99.90;;;;;;5061982;28;20179;-71
2022/04/05 08:37:11;;;;;;;8.57;7.83;;;6.20;99.90;;;;;;5068543;28;20199;-72
2022/04/05 08:39:38;;;;;;;9.03;8.17;;;6.10;99.90;;;;;;5063313;28;20229;-72
2022/04/05 08:42:05;;;;;;;10.90;8.70;;;6.10;99.90;;;;;;5067735;28;20194;-72
2022/04/05 08:44:31;;;;;;;9.87;8.83;;;6.10;99.90;;;;;;5072556;28;20182;-71
2022/04/05 08:47:01;;;;;;;8.20;7.40;;;6.20;99.90;;;;;;5073745;28;20206;-72
2022/04/05 08:49:31;;;;;;;9.90;8.93;;;6.20;99.90;;;;;;5060666;28;20198;-69
2022/04/05 08:51:57;;;;;;;9.13;8.00;;;6.50;99.90;;;;;;5066720;28;20211;-71
2022/04/05 08:54:23;;;;;;;8.47;7.67;;;6.80;99.90;;;;;;5056997;28;20749;-71
2022/04/05 08:56:50;;;;;;;9.07;8.30;;;6.90;99.90;;;;;;5053679;28;20199;-71
2022/04/05 08:59:16;;;;;;;8.77;8.00;;;7.10;99.90;;;;;;5054252;28;20172;-72
2022/04/05 09:01:41;;;;;;;8.73;7.83;;;7.30;99.90;;;;;;5053903;28;20191;-72
2022/04/05 09:04:07;;;;;;;6.87;6.37;;;7.40;99.90;;;;;;5053924;28;20179;-72
2022/04/05 09:06:35;;;;;;;7.93;7.13;;;7.50;99.90;;;;;;5065987;28;20206;-71
2022/04/05 09:09:12;;;;;;;7.73;7.03;;;7.60;99.90;;;;;;5066732;28;20194;-70
2022/04/05 09:11:49;;;;;;;8.67;7.97;;;7.80;99.90;;;;;;5071797;28;20291;-70
2022/04/05 09:14:21;;;;;;;6.67;5.47;;;8.00;99.90;;;;;;5053606;28;20580;-72
2022/04/05 09:17:02;;;;;;;7.23;6.63;;;8.20;99.90;;;;;;5053589;28;20697;-74
2022/04/05 09:19:42;;;;;;;7.33;6.63;;;8.10;99.90;;;;;;5053684;28;20708;-74
2022/04/05 09:22:09;;;;;;;7.53;6.93;;;7.90;99.90;;;;;;5054138;28;20214;-74
2022/04/05 09:24:39;;;;;;;6.90;6.40;;;7.80;99.90;;;;;;5053713;28;20183;-74
2022/04/05 09:27:06;;;;;;;6.97;6.37;;;7.90;99.90;;;;;;5053627;28;20211;-74
2022/04/05 09:29:51;;;;;;;5.97;5.47;;;7.80;99.90;;;;;;5056464;28;20184;-74
2022/04/05 09:32:37;;;;;;;8.53;7.67;;;7.70;99.90;;;;;;5081463;28;20293;-73
2022/04/05 09:35:04;;;;;;;7.37;6.67;;;7.70;99.90;;;;;;5074509;28;20179;-73
2022/04/05 09:37:29;;;;;;;7.47;6.77;;;7.60;99.90;;;;;;5091178;28;20724;-73
2022/04/05 09:40:14;;;;;;;8.57;7.67;;;7.50;99.90;;;;;;5081534;28;20180;-73
2022/04/05 09:43:12;;;;;;;7.10;6.40;;;7.50;99.90;;;;;;5052003;28;20176;-73
2022/04/05 09:45:46;;;;;;;5.60;5.20;;;7.50;99.90;;;;;;5070150;28;20187;-71
2022/04/05 09:48:13;;;;;;;8.23;7.50;;;7.50;99.90;;;;;;5062264;28;20209;-71
2022/04/05 09:51:09;;;;;;;7.33;6.57;;;7.50;99.90;;;;;;5053079;28;20246;-71
2022/04/05 09:53:41;;;;;;;8.50;7.63;;;7.50;99.90;;;;;;5053127;28;20186;-71
2022/04/05 09:56:09;;;;;;;8.60;7.90;;;7.50;99.90;;;;;;5052352;28;20246;-72
2022/04/05 09:58:36;;;;;;;6.93;6.07;;;7.70;99.90;;;;;;5073996;28;20209;-71
2022/04/05 10:01:08;;;;;;;7.60;6.90;;;7.80;99.90;;;;;;5082752;28;20236;-72
2022/04/05 10:03:35;;;;;;;6.93;6.13;;;7.70;99.90;;;;;;5073933;28;20175;-71
2022/04/05 10:06:02;;;;;;;7.83;7.23;;;7.70;99.90;;;;;;5075793;28;20226;-67
2022/04/05 10:08:32;;;;;;;6.63;6.03;;;8.00;99.90;;;;;;5074917;28;20164;-68
2022/04/05 10:10:59;;;;;;;7.83;7.20;;;8.10;99.90;;;;;;5061014;28;20168;-68
2022/04/05 10:13:26;;;;;;;7.97;7.37;;;8.10;99.90;;;;;;5067046;28;20190;-69
2022/04/05 10:15:53;;;;;;;6.63;6.03;;;8.20;99.90;;;;;;5066615;28;20692;-69
2022/04/05 10:18:20;;;;;;;6.07;5.47;;;8.10;99.90;;;;;;5062452;28;20171;-70
2022/04/05 10:20:49;;;;;;;6.85;6.15;;;8.00;99.90;;;;;;5065896;28;20172;-69
2022/04/05 10:23:24;;;;;;;7.63;6.93;;;8.10;99.90;;;;;;5065072;28;20568;-69
2022/04/05 10:25:52;;;;;;;6.30;5.80;;;8.00;99.90;;;;;;5060910;28;20708;-68
2022/04/05 10:28:24;;;;;;;7.33;6.63;;;7.90;99.90;;;;;;5061326;28;20217;-69
2022/04/05 10:31:01;;;;;;;5.83;5.33;;;7.70;99.90;;;;;;5077678;28;20708;-68
2022/04/05 10:33:49;;;;;;;7.77;7.07;;;7.80;99.90;;;;;;5071525;28;20180;-67
2022/04/05 10:36:22;;;;;;;7.53;6.83;;;7.80;99.90;;;;;;5083991;28;20594;-68
2022/04/05 10:39:17;;;;;;;7.53;6.90;;;7.80;99.90;;;;;;5092396;28;20517;-69
2022/04/05 10:42:09;;;;;;;5.20;4.77;;;7.90;99.90;;;;;;5069751;28;20687;-69
2022/04/05 10:44:36;;;;;;;7.53;6.90;;;8.00;99.90;;;;;;5070099;28;20222;-68
2022/04/05 10:47:06;;;;;;;6.20;5.70;;;8.10;99.90;;;;;;5084146;28;20676;-68
2022/04/05 10:49:54;;;;;;;6.93;5.80;;;8.20;99.90;;;;;;5082389;28;20674;-69
2022/04/05 10:52:32;;;;;;;7.67;7.03;;;8.10;99.90;;;;;;5057355;28;20248;-70
2022/04/05 10:55:04;;;;;;;7.07;6.40;;;7.90;99.90;;;;;;5078084;28;20194;-70
2022/04/05 10:57:37;;;;;;;5.47;5.03;;;8.00;99.90;;;;;;5083259;28;20198;-69
2022/04/05 11:00:11;;;;;;;7.78;7.07;;;8.10;99.90;;;;;;5075859;28;20175;-69
2022/04/05 11:02:45;;;;;;;8.40;7.50;;;8.30;99.90;;;;;;5081931;28;20815;-69
2022/04/05 11:05:14;;;;;;;7.63;7.03;;;8.40;99.90;;;;;;5083301;28;20209;-69
2022/04/05 11:08:12;;;;;;;8.17;7.37;;;8.40;99.90;;;;;;5070356;28;20209;-69
2022/04/05 11:10:38;;;;;;;7.53;6.07;;;8.30;99.90;;;;;;5055570;28;20342;-71
2022/04/05 11:13:08;;;;;;;7.47;6.87;;;8.40;99.90;;;;;;5075900;28;20206;-70
2022/04/05 11:15:41;;;;;;;8.05;7.25;;;8.40;99.90;;;;;;5072662;28;20565;-68
2022/04/05 11:18:10;;;;;;;6.70;6.10;;;8.30;99.90;;;;;;5071664;28;20175;-68
2022/04/05 11:20:38;;;;;;;7.65;7.03;;;8.30;99.90;;;;;;5066348;28;20179;-68
2022/04/05 11:23:05;;;;;;;6.55;6.05;;;8.30;99.90;;;;;;5063598;28;20180;-69
2022/04/05 11:25:31;;;;;;;6.50;5.43;;;8.30;99.90;;;;;;5072819;28;20194;-69
2022/04/05 11:28:16;;;;;;;7.93;7.23;;;8.30;99.90;;;;;;5071633;28;20186;-70
2022/04/05 11:31:04;;;;;;;7.43;6.75;;;8.20;99.90;;;;;;5076325;28;20188;-68
2022/04/05 11:33:30;;;;;;;8.45;7.65;;;8.20;99.90;;;;;;5071757;28;20179;-67
2022/04/05 11:35:58;;;;;;;6.77;5.73;;;8.20;99.90;;;;;;5071395;28;20194;-68
2022/04/05 11:38:28;;;;;;;7.65;6.97;;;8.40;99.90;;;;;;5067128;28;20229;-68
2022/04/05 11:41:05;;;;;;;8.30;7.60;;;8.70;99.90;;;;;;5073140;28;20198;-70
2022/04/05 11:43:42;;;;;;;6.20;5.22;;;9.10;99.90;;;;;;5078648;28;20185;-68
2022/04/05 11:46:16;;;;;;;5.68;5.28;;;9.50;99.90;;;;;;5078054;28;20202;-67
2022/04/05 11:48:50;;;;;;;6.78;6.13;;;9.70;99.90;;;;;;5079100;28;20497;-69
2022/04/05 11:51:37;;;;;;;6.40;5.82;;;10.00;99.90;;;;;;5079112;28;20250;-68
2022/04/05 11:54:19;;;;;;;7.60;6.90;;;9.90;99.90;;;;;;5051606;28;20225;-69
2022/04/05 11:56:46;;;;;;;6.60;6.00;;;10.10;99.90;;;;;;5051540;28;20262;-71
2022/04/05 11:59:14;;;;;;;6.35;5.75;;;10.10;99.90;;;;;;5074277;28;20182;-67
2022/04/05 12:01:42;;;;;;;5.32;4.88;;;10.20;99.90;;;;;;5078056;28;20273;-68
2022/04/05 12:04:14;;;;;;;5.15;4.65;;;10.50;99.90;;;;;;5082904;28;20641;-67
2022/04/05 12:06:45;;;;;;;5.80;5.30;;;10.70;99.90;;;;;;5066917;28;20198;-67
2022/04/05 12:09:12;;;;;;;6.20;5.60;;;10.50;99.90;;;;;;5084123;28;20190;-68
2022/04/05 12:11:43;;;;;;;7.00;6.35;;;10.90;99.90;;;;;;5087048;28;20194;-71
2022/04/05 12:14:10;;;;;;;6.10;5.63;;;11.50;99.90;;;;;;5075870;28;20550;-69
2022/04/05 12:16:50;;;;;;;6.35;5.53;;;11.70;99.90;;;;;;5078281;28;20202;-69
2022/04/05 12:19:17;;;;;;;4.90;4.50;;;11.80;99.90;;;;;;5090460;28;20264;-69
2022/04/05 12:21:43;;;;;;;6.05;5.45;;;11.80;99.90;;;;;;5072002;28;20284;-71
2022/04/05 12:24:08;;;;;;;6.30;5.80;;;11.60;99.90;;;;;;5070050;28;20696;-70
2022/04/05 12:26:34;;;;;;;6.00;5.38;;;11.60;99.90;;;;;;5060894;28;20211;-71
2022/04/05 12:29:00;;;;;;;5.72;5.22;;;11.70;99.90;;;;;;5066489;28;20182;-71
2022/04/05 12:31:28;;;;;;;5.10;4.60;;;11.60;99.90;;;;;;5073424;28;20203;-70
2022/04/05 12:34:13;;;;;;;5.03;4.53;;;11.60;99.90;;;;;;5074198;28;20206;-68
2022/04/05 12:36:40;;;;;;;5.95;5.40;;;11.30;99.90;;;;;;5054021;28;20196;-69
2022/04/05 12:39:26;;;;;;;6.32;5.82;;;10.80;99.90;;;;;;5054344;28;20176;-69
2022/04/05 12:41:59;;;;;;;5.22;4.85;;;10.50;99.90;;;;;;5054440;28;20176;-70
2022/04/05 12:44:30;;;;;;;5.93;5.40;;;10.40;99.90;;;;;;5059247;28;20176;-70
2022/04/05 12:47:10;;;;;;;6.82;6.22;;;10.10;99.90;;;;;;5073603;28;20205;-69
2022/04/05 12:49:38;;;;;;;6.38;5.35;;;9.90;99.90;;;;;;5068686;28;20217;-69
2022/04/05 12:52:17;;;;;;;4.93;4.63;;;9.90;99.90;;;;;;5054145;28;20282;-72
2022/04/05 12:54:51;;;;;;;5.22;4.72;;;9.80;99.90;;;;;;5054412;28;20250;-69
2022/04/05 12:57:20;;;;;;;5.18;4.70;;;9.70;99.90;;;;;;5053306;28;20199;-68
2022/04/05 12:59:47;;;;;;;7.10;6.40;;;9.70;99.90;;;;;;5054175;28;20168;-69